Time;durP1;ratioP1;P1;durP2;ratioP2;P2;SDS_P1;SDS_P2;PMS_P1;PMS_P2;Temp;Humidity;BMP_temperature;BMP_pressure;BME280_temperature;BME280_humidity;BME280_pressure;Samples;Min_cycle;Max_cycle;Signal;HPM_P1;HPM_P2
2023/11/17 00:00:09;;;;;;;0.30;0.20;;;;;;;9.14;100.00;99951.91;5029418;28;20565;-48
2023/11/17 00:02:36;;;;;;;0.30;0.20;;;;;;;9.24;100.00;99955.19;5015260;28;20453;-46
2023/11/17 00:05:03;;;;;;;0.30;0.20;;;;;;;9.29;100.00;99969.16;5013254;28;20539;-47
2023/11/17 00:07:30;;;;;;;0.30;0.20;;;;;;;9.33;100.00;99975.28;5031883;28;20527;-46
2023/11/17 00:09:56;;;;;;;0.30;0.20;;;;;;;9.29;100.00;99982.41;5031319;28;20975;-46
2023/11/17 00:12:23;;;;;;;0.30;0.20;;;;;;;9.30;100.00;99981.50;5031517;28;20452;-46
2023/11/17 00:14:50;;;;;;;0.30;0.20;;;;;;;9.24;100.00;99986.13;5031370;28;20490;-47
2023/11/17 00:17:16;;;;;;;0.30;0.20;;;;;;;9.16;100.00;99989.84;5023999;28;20452;-47
2023/11/17 00:19:44;;;;;;;0.30;0.20;;;;;;;9.28;100.00;99987.78;5031158;28;20559;-47
2023/11/17 00:22:10;;;;;;;0.30;0.20;;;;;;;9.37;100.00;99983.09;5025557;28;20488;-47
2023/11/17 00:24:37;;;;;;;0.30;0.20;;;;;;;9.60;100.00;99998.34;5030214;28;20549;-47
2023/11/17 00:27:03;;;;;;;0.30;0.20;;;;;;;9.61;100.00;99996.56;5031534;28;20455;-46
2023/11/17 00:29:30;;;;;;;0.30;0.20;;;;;;;9.55;100.00;100002.91;5025701;28;20539;-46
2023/11/17 00:31:56;;;;;;;0.30;0.20;;;;;;;9.65;100.00;100017.66;5023740;28;20519;-46
2023/11/17 00:34:23;;;;;;;0.30;0.20;;;;;;;9.66;100.00;100022.03;5031118;28;20895;-46
2023/11/17 00:36:49;;;;;;;0.30;0.20;;;;;;;9.58;100.00;100028.47;5023431;28;20520;-47
2023/11/17 00:39:17;;;;;;;0.30;0.20;;;;;;;9.48;100.00;100023.44;5029979;28;20479;-47
2023/11/17 00:41:44;;;;;;;0.70;0.70;;;;;;;9.42;100.00;100025.38;5026969;28;20543;-47
2023/11/17 00:44:11;;;;;;;0.30;0.20;;;;;;;9.39;100.00;100030.78;5021053;28;20518;-46
2023/11/17 00:46:38;;;;;;;0.30;0.20;;;;;;;9.33;100.00;100045.09;5026000;28;20452;-46
2023/11/17 00:49:04;;;;;;;0.30;0.20;;;;;;;9.30;100.00;100045.16;5034915;28;20458;-47
2023/11/17 00:51:33;;;;;;;0.30;0.20;;;;;;;9.44;100.00;100052.75;5034657;28;20447;-47
2023/11/17 00:54:04;;;;;;;0.30;0.20;;;;;;;9.35;100.00;100059.19;5034548;28;20451;-47
2023/11/17 00:56:31;;;;;;;0.30;0.20;;;;;;;9.30;100.00;100052.25;5034468;28;20581;-47
2023/11/17 00:58:58;;;;;;;0.30;0.20;;;;;;;9.40;100.00;100067.00;5034309;28;20829;-47
2023/11/17 01:01:26;;;;;;;0.30;0.20;;;;;;;9.45;100.00;100073.03;5021697;28;20968;-46
2023/11/17 01:03:53;;;;;;;0.30;0.20;;;;;;;9.55;100.00;100079.84;5034846;28;20482;-47
2023/11/17 01:06:21;;;;;;;0.30;0.20;;;;;;;9.58;100.00;100086.84;5034494;28;20563;-47
2023/11/17 01:08:47;;;;;;;0.30;0.20;;;;;;;9.44;100.00;100100.50;5034615;28;20486;-46
2023/11/17 01:11:14;;;;;;;0.30;0.20;;;;;;;9.44;100.00;100103.16;5032184;28;20486;-47
2023/11/17 01:13:41;;;;;;;0.30;0.20;;;;;;;9.49;100.00;100115.41;5034205;28;20527;-47
2023/11/17 01:16:08;;;;;;;0.30;0.20;;;;;;;9.50;100.00;100116.25;5033851;28;20487;-47
2023/11/17 01:18:34;;;;;;;0.30;0.20;;;;;;;9.44;100.00;100114.63;5034289;28;20882;-47
2023/11/17 01:21:01;;;;;;;0.30;0.20;;;;;;;9.33;100.00;100121.16;5034097;28;20506;-46
2023/11/17 01:23:28;;;;;;;0.30;0.20;;;;;;;9.41;100.00;100132.41;5024818;28;20463;-47
2023/11/17 01:25:55;;;;;;;0.30;0.30;;;;;;;9.39;100.00;100128.94;5034042;28;20454;-47
2023/11/17 01:28:23;;;;;;;0.30;0.20;;;;;;;9.34;100.00;100144.97;5033920;28;21023;-46
2023/11/17 01:30:49;;;;;;;0.30;0.20;;;;;;;9.37;100.00;100144.91;5020293;28;20486;-47
2023/11/17 01:33:16;;;;;;;0.30;0.20;;;;;;;9.36;100.00;100147.59;5033752;28;20956;-47
2023/11/17 01:35:43;;;;;;;0.30;0.20;;;;;;;9.34;100.00;100149.41;5033797;28;20563;-46
2023/11/17 01:38:11;;;;;;;0.30;0.20;;;;;;;9.39;100.00;100155.47;5025943;28;20486;-46
2023/11/17 01:40:37;;;;;;;0.30;0.20;;;;;;;9.34;100.00;100158.25;5033757;28;20554;-46
2023/11/17 01:43:05;;;;;;;0.30;0.20;;;;;;;9.39;100.00;100166.94;5032917;28;20455;-46
2023/11/17 01:45:33;;;;;;;0.30;0.20;;;;;;;9.25;100.00;100169.06;5018675;28;21015;-46
2023/11/17 01:48:00;;;;;;;0.30;0.20;;;;;;;9.19;100.00;100172.75;5033914;28;20456;-46
2023/11/17 01:50:27;;;;;;;0.30;0.20;;;;;;;9.19;100.00;100166.59;5015779;28;20985;-47
2023/11/17 01:52:55;;;;;;;0.30;0.20;;;;;;;9.24;100.00;100185.91;5027586;28;20495;-46
2023/11/17 01:55:24;;;;;;;0.30;0.20;;;;;;;9.15;100.00;100179.03;5033335;28;20454;-46
2023/11/17 01:57:52;;;;;;;0.30;0.20;;;;;;;9.11;100.00;100182.69;5032465;28;20543;-46
2023/11/17 02:00:19;;;;;;;0.30;0.20;;;;;;;9.12;100.00;100183.53;5025211;28;20518;-47
2023/11/17 02:02:51;;;;;;;0.30;0.20;;;;;;;9.15;100.00;100187.00;5026948;28;20544;-46
2023/11/17 02:05:20;;;;;;;0.30;0.20;;;;;;;9.15;100.00;100197.59;5011603;28;20455;-46
2023/11/17 02:07:53;;;;;;;0.30;0.20;;;;;;;9.10;100.00;100199.50;5033259;28;20876;-46
2023/11/17 02:10:31;;;;;;;0.30;0.20;;;;;;;9.11;100.00;100203.88;5032992;28;20522;-46
2023/11/17 02:13:26;;;;;;;0.30;0.20;;;;;;;9.10;100.00;100202.16;5033362;28;20444;-46
2023/11/17 02:15:55;;;;;;;0.30;0.20;;;;;;;9.15;100.00;100205.56;5023775;28;20495;-49
2023/11/17 02:18:25;;;;;;;0.30;0.20;;;;;;;9.14;100.00;100209.13;5033006;28;20456;-48
2023/11/17 02:20:58;;;;;;;0.30;0.20;;;;;;;9.12;100.00;100213.59;5018197;28;20481;-48
2023/11/17 02:23:26;;;;;;;0.30;0.20;;;;;;;9.15;100.00;100209.97;5033066;28;20430;-48
2023/11/17 02:26:17;;;;;;;0.30;0.20;;;;;;;9.19;100.00;100209.91;5032678;28;20447;-48
2023/11/17 02:28:58;;;;;;;0.30;0.20;;;;;;;9.08;100.00;100209.28;5032711;28;20451;-48
2023/11/17 02:31:32;;;;;;;0.30;0.20;;;;;;;9.17;100.00;100210.81;5013654;28;20458;-48
2023/11/17 02:34:09;;;;;;;0.30;0.20;;;;;;;9.14;100.00;100208.25;5019435;28;20456;-49
2023/11/17 02:36:38;;;;;;;0.30;0.20;;;;;;;9.16;100.00;100204.63;5028688;28;20891;-49
2023/11/17 02:39:24;;;;;;;0.30;0.20;;;;;;;9.20;100.00;100210.75;5028271;28;20454;-48
2023/11/17 02:41:58;;;;;;;0.30;0.20;;;;;;;9.20;100.00;100211.63;5031955;28;20485;-49
2023/11/17 02:44:33;;;;;;;0.30;0.20;;;;;;;9.33;100.00;100209.56;5013699;28;20494;-49
2023/11/17 02:47:03;;;;;;;0.30;0.20;;;;;;;9.23;100.00;100215.13;5029595;28;20447;-49
2023/11/17 02:49:45;;;;;;;0.30;0.20;;;;;;;9.21;100.00;100215.16;5032775;28;20887;-49
2023/11/17 02:52:24;;;;;;;0.30;0.20;;;;;;;9.12;100.00;100216.25;5023610;28;20471;-49
2023/11/17 02:54:51;;;;;;;0.30;0.20;;;;;;;9.16;100.00;100222.34;5032101;28;21031;-49
2023/11/17 02:57:24;;;;;;;0.30;0.20;;;;;;;9.09;100.00;100226.91;5032284;28;20497;-49
2023/11/17 02:59:51;;;;;;;0.30;0.20;;;;;;;9.23;100.00;100234.56;5032012;28;20574;-48
2023/11/17 03:02:19;;;;;;;0.30;0.20;;;;;;;9.16;100.00;100239.13;5014644;28;20449;-48
2023/11/17 03:04:53;;;;;;;0.30;0.20;;;;;;;9.18;100.00;100247.03;5028497;28;20455;-48
2023/11/17 03:07:21;;;;;;;0.30;0.20;;;;;;;9.14;100.00;100240.06;5032308;28;20483;-48
2023/11/17 03:09:51;;;;;;;0.30;0.20;;;;;;;9.12;100.00;100252.50;5031540;28;21038;-49
2023/11/17 03:12:19;;;;;;;0.30;0.20;;;;;;;9.08;100.00;100251.69;5032038;28;20471;-48
2023/11/17 03:14:45;;;;;;;0.30;0.20;;;;;;;9.08;100.00;100253.47;5031798;28;20505;-48
2023/11/17 03:17:12;;;;;;;0.30;0.20;;;;;;;9.09;100.00;100250.78;5024246;28;20488;-48
2023/11/17 03:19:40;;;;;;;0.30;0.20;;;;;;;9.13;100.00;100260.41;5030976;28;20472;-48
2023/11/17 03:22:06;;;;;;;0.30;0.20;;;;;;;9.13;100.00;100262.19;5029573;28;20458;-49
2023/11/17 03:24:34;;;;;;;0.30;0.20;;;;;;;9.22;100.00;100263.75;5026562;28;21010;-49
2023/11/17 03:27:01;;;;;;;0.30;0.20;;;;;;;9.15;100.00;100266.53;5031898;28;20919;-48
2023/11/17 03:29:31;;;;;;;0.30;0.20;;;;;;;9.22;100.00;100259.34;5020720;28;20472;-48
2023/11/17 03:31:58;;;;;;;0.30;0.20;;;;;;;9.20;100.00;100263.81;5024593;28;20514;-49
2023/11/17 03:34:30;;;;;;;0.30;0.20;;;;;;;9.18;100.00;100255.88;5031675;28;20490;-48
2023/11/17 03:37:02;;;;;;;0.30;0.20;;;;;;;9.22;100.00;100277.03;5028123;28;20496;-48
2023/11/17 03:39:42;;;;;;;0.30;0.20;;;;;;;9.02;100.00;100278.34;5006528;28;20483;-47
2023/11/17 03:42:18;;;;;;;0.30;0.20;;;;;;;8.90;100.00;100282.13;5031392;28;20447;-48
2023/11/17 03:44:44;;;;;;;0.30;0.20;;;;;;;8.83;100.00;100277.00;5020233;28;20498;-48
2023/11/17 03:47:12;;;;;;;0.30;0.20;;;;;;;8.78;100.00;100277.13;5028448;28;20448;-48
2023/11/17 03:49:38;;;;;;;0.30;0.20;;;;;;;8.88;100.00;100278.63;5031515;28;20472;-49
2023/11/17 03:52:05;;;;;;;0.30;0.20;;;;;;;8.88;100.00;100286.59;5031302;28;20452;-49
2023/11/17 03:54:32;;;;;;;0.30;0.20;;;;;;;8.77;100.00;100291.28;5031220;28;20474;-47
2023/11/17 03:57:03;;;;;;;0.30;0.20;;;;;;;8.75;100.00;100294.84;5028586;28;20905;-48
2023/11/17 03:59:30;;;;;;;0.30;0.20;;;;;;;8.75;100.00;100303.66;5031450;28;20525;-49
2023/11/17 04:01:57;;;;;;;0.30;0.20;;;;;;;8.73;100.00;100299.31;5019963;28;20509;-49
2023/11/17 04:04:25;;;;;;;0.30;0.20;;;;;;;8.66;100.00;100295.06;5031417;28;20487;-48
2023/11/17 04:06:54;;;;;;;0.30;0.20;;;;;;;8.71;100.00;100298.47;5031253;28;20452;-48
2023/11/17 04:09:23;;;;;;;0.30;0.20;;;;;;;8.73;100.00;100296.66;5013562;28;20478;-48
2023/11/17 04:11:51;;;;;;;0.30;0.20;;;;;;;8.81;100.00;100302.69;5006509;28;20464;-48
2023/11/17 04:14:22;;;;;;;0.30;0.20;;;;;;;8.84;100.00;100305.25;5031027;28;20459;-49
2023/11/17 04:16:50;;;;;;;0.30;0.20;;;;;;;8.86;100.00;100306.97;5031250;28;20581;-48
2023/11/17 04:19:20;;;;;;;0.30;0.20;;;;;;;8.81;100.00;100308.84;5031025;28;20499;-49
2023/11/17 04:21:48;;;;;;;0.30;0.20;;;;;;;8.87;100.00;100319.31;5033423;28;20447;-48
2023/11/17 04:24:16;;;;;;;0.30;0.20;;;;;;;8.82;100.00;100312.38;5033948;28;20451;-48
2023/11/17 04:26:44;;;;;;;0.33;0.20;;;;;;;8.96;100.00;100330.63;5024685;28;20991;-49
2023/11/17 04:29:10;;;;;;;0.30;0.20;;;;;;;8.85;100.00;100317.59;5031990;28;20535;-49
2023/11/17 04:31:38;;;;;;;0.30;0.20;;;;;;;8.87;100.00;100323.72;5024829;28;20451;-49
2023/11/17 04:34:05;;;;;;;0.30;0.20;;;;;;;8.92;100.00;100327.19;5034652;28;20462;-48
2023/11/17 04:36:35;;;;;;;0.30;0.20;;;;;;;8.97;100.00;100335.91;5029147;28;20487;-47
2023/11/17 04:39:01;;;;;;;0.30;0.20;;;;;;;8.97;100.00;100337.69;5031852;28;20447;-48
2023/11/17 04:41:31;;;;;;;0.30;0.20;;;;;;;9.03;100.00;100341.06;5034813;28;20475;-49
2023/11/17 04:43:58;;;;;;;0.30;0.20;;;;;;;8.96;100.00;100341.22;5026347;28;20941;-48
2023/11/17 04:46:24;;;;;;;0.30;0.20;;;;;;;8.90;100.00;100339.56;5025815;28;20551;-48
2023/11/17 04:48:51;;;;;;;0.30;0.20;;;;;;;9.03;100.00;100334.88;5034261;28;20448;-48
2023/11/17 04:51:17;;;;;;;0.30;0.20;;;;;;;8.94;100.00;100335.09;5024270;28;20456;-49
2023/11/17 04:53:44;;;;;;;0.30;0.20;;;;;;;8.90;100.00;100339.56;5032517;28;20455;-48
2023/11/17 04:56:13;;;;;;;0.30;0.20;;;;;;;8.90;100.00;100337.78;5034923;28;20491;-49
2023/11/17 04:58:40;;;;;;;0.30;0.20;;;;;;;8.90;100.00;100347.53;5016911;28;20874;-48
2023/11/17 05:01:06;;;;;;;0.30;0.20;;;;;;;8.85;100.00;100339.66;5024235;28;20486;-49
2023/11/17 05:03:35;;;;;;;0.30;0.20;;;;;;;8.80;100.00;100346.84;5033061;28;20875;-49
2023/11/17 05:06:06;;;;;;;0.30;0.20;;;;;;;8.90;100.00;100351.03;5023820;28;20453;-49
2023/11/17 05:08:35;;;;;;;0.30;0.20;;;;;;;8.82;100.00;100349.47;5007961;28;20444;-49
2023/11/17 05:11:01;;;;;;;0.30;0.20;;;;;;;8.78;100.00;100347.81;5034271;28;21065;-47
2023/11/17 05:13:28;;;;;;;0.30;0.20;;;;;;;8.68;100.00;100347.09;5025616;28;20460;-49
2023/11/17 05:15:55;;;;;;;0.30;0.20;;;;;;;8.70;100.00;100355.03;5033975;28;20456;-48
2023/11/17 05:18:21;;;;;;;0.30;0.20;;;;;;;8.58;100.00;100354.34;5031638;28;20535;-49
2023/11/17 05:20:48;;;;;;;0.30;0.20;;;;;;;8.71;100.00;100360.28;5027659;28;20843;-47
2023/11/17 05:23:16;;;;;;;2.27;2.27;;;;;;;8.78;100.00;100364.56;5034139;28;20451;-49
2023/11/17 05:25:43;;;;;;;0.30;0.20;;;;;;;8.75;100.00;100363.75;5033892;28;20451;-50
2023/11/17 05:28:10;;;;;;;0.30;0.20;;;;;;;8.91;100.00;100362.56;5033808;28;21010;-48
2023/11/17 05:30:37;;;;;;;0.30;0.20;;;;;;;9.05;100.00;100360.47;5020458;28;20890;-48
2023/11/17 05:33:04;;;;;;;0.30;0.20;;;;;;;9.09;100.00;100374.53;5032944;28;20460;-48
2023/11/17 05:35:31;;;;;;;0.30;0.20;;;;;;;9.03;100.00;100370.22;5033809;28;20452;-48
2023/11/17 05:37:58;;;;;;;0.30;0.20;;;;;;;9.08;100.00;100378.97;5024252;28;20495;-49
2023/11/17 05:40:24;;;;;;;0.30;0.20;;;;;;;9.10;100.00;100371.84;5029007;28;20478;-48
2023/11/17 05:42:51;;;;;;;0.30;0.20;;;;;;;9.10;100.00;100374.50;5033623;28;20479;-48
2023/11/17 05:45:18;;;;;;;0.30;0.20;;;;;;;9.23;100.00;100382.19;5016680;28;20452;-48
2023/11/17 05:47:44;;;;;;;0.30;0.20;;;;;;;9.11;100.00;100378.91;5033495;28;20535;-49
2023/11/17 05:50:11;;;;;;;0.30;0.20;;;;;;;9.13;100.00;100385.03;5030628;28;20494;-48
2023/11/17 05:52:39;;;;;;;0.30;0.20;;;;;;;9.10;100.00;100382.47;5023042;28;20505;-48
2023/11/17 05:55:06;;;;;;;0.30;0.20;;;;;;;9.07;100.00;100384.31;5033338;28;20564;-48
2023/11/17 05:57:33;;;;;;;0.30;0.20;;;;;;;9.04;100.00;100373.75;5033007;28;20495;-48
2023/11/17 06:00:02;;;;;;;0.30;0.20;;;;;;;8.96;100.00;100383.66;5032189;28;20523;-47
2023/11/17 06:02:28;;;;;;;0.30;0.20;;;;;;;9.01;100.00;100385.28;5023099;28;20891;-47
2023/11/17 06:04:55;;;;;;;0.30;0.20;;;;;;;8.93;100.00;100378.41;5030404;28;20989;-47
2023/11/17 06:07:22;;;;;;;0.30;0.20;;;;;;;8.93;100.00;100379.28;5022895;28;20509;-48
2023/11/17 06:09:48;;;;;;;0.30;0.20;;;;;;;9.03;100.00;100386.13;5032638;28;20467;-49
2023/11/17 06:12:15;;;;;;;0.30;0.20;;;;;;;9.11;100.00;100389.50;5032851;28;20923;-50
2023/11/17 06:14:42;;;;;;;0.30;0.20;;;;;;;9.07;100.00;100397.56;5023986;28;20448;-49
2023/11/17 06:17:09;;;;;;;0.30;0.20;;;;;;;9.00;100.00;100395.94;5014207;28;20496;-50
2023/11/17 06:19:39;;;;;;;0.30;0.20;;;;;;;8.96;100.00;100407.50;5030286;28;20499;-50
2023/11/17 06:22:08;;;;;;;0.30;0.20;;;;;;;8.89;100.00;100404.97;5032933;28;20452;-50
2023/11/17 06:24:37;;;;;;;0.30;0.20;;;;;;;8.96;100.00;100407.50;5032374;28;20486;-49
2023/11/17 06:27:04;;;;;;;0.30;0.20;;;;;;;9.05;100.00;100410.84;5031635;28;20456;-49
2023/11/17 06:29:31;;;;;;;0.30;0.20;;;;;;;9.00;100.00;100407.41;5026641;28;21033;-49
2023/11/17 06:31:57;;;;;;;0.30;0.20;;;;;;;9.07;100.00;100414.34;5021845;28;20556;-49
2023/11/17 06:34:24;;;;;;;0.30;0.20;;;;;;;8.82;100.00;100418.38;5031751;28;20488;-48
2023/11/17 06:36:51;;;;;;;0.30;0.20;;;;;;;8.79;100.00;100411.38;5018145;28;20492;-50
2023/11/17 06:39:19;;;;;;;0.30;0.20;;;;;;;8.76;100.00;100414.06;5031576;28;20468;-48
2023/11/17 06:41:47;;;;;;;0.30;0.20;;;;;;;8.79;100.00;100410.50;5028013;28;20505;-49
2023/11/17 06:44:15;;;;;;;0.30;0.20;;;;;;;8.80;100.00;100412.25;5021308;28;20904;-49
2023/11/17 06:46:42;;;;;;;0.30;0.20;;;;;;;8.79;100.00;100419.31;5013556;28;20997;-48
2023/11/17 06:49:09;;;;;;;0.30;0.20;;;;;;;8.87;100.00;100416.50;5032148;28;20932;-49
2023/11/17 06:51:37;;;;;;;0.30;0.20;;;;;;;8.81;100.00;100414.00;5032029;28;20933;-49
2023/11/17 06:54:08;;;;;;;0.30;0.20;;;;;;;8.82;100.00;100424.56;5032162;28;20452;-48
2023/11/17 06:56:35;;;;;;;0.30;0.20;;;;;;;8.84;100.00;100428.06;5031994;28;20944;-48
2023/11/17 06:59:01;;;;;;;0.30;0.20;;;;;;;8.82;100.00;100429.00;5031965;28;20926;-49
2023/11/17 07:01:28;;;;;;;0.30;0.20;;;;;;;8.73;100.00;100435.31;5020433;28;20547;-49
2023/11/17 07:03:55;;;;;;;0.30;0.20;;;;;;;8.61;100.00;100432.91;5032131;28;20547;-49
2023/11/17 07:06:26;;;;;;;0.30;0.20;;;;;;;8.51;100.00;100437.50;5021604;28;20453;-49
2023/11/17 07:08:53;;;;;;;0.30;0.20;;;;;;;8.49;100.00;100444.59;5032066;28;20448;-48
2023/11/17 07:11:19;;;;;;;0.30;0.20;;;;;;;8.74;100.00;100437.06;5031881;28;20495;-48
2023/11/17 07:13:46;;;;;;;0.30;0.20;;;;;;;8.88;100.00;100444.75;5031629;28;20798;-48
2023/11/17 07:16:18;;;;;;;0.30;0.20;;;;;;;8.88;100.00;100453.59;5031865;28;20459;-49
2023/11/17 07:18:44;;;;;;;0.30;0.20;;;;;;;8.86;100.00;100452.75;5031698;28;20499;-51
2023/11/17 07:21:11;;;;;;;0.30;0.20;;;;;;;8.85;100.00;100455.44;5023061;28;20481;-49
2023/11/17 07:23:43;;;;;;;0.30;0.20;;;;;;;8.77;100.00;100460.88;5031998;28;20452;-49
2023/11/17 07:26:17;;;;;;;0.30;0.20;;;;;;;8.88;100.00;100456.22;5031590;28;20937;-46
2023/11/17 07:28:46;;;;;;;0.30;0.20;;;;;;;8.69;100.00;100469.88;5031835;28;20439;-48
2023/11/17 07:31:15;;;;;;;0.30;0.20;;;;;;;8.78;100.00;100475.00;5018001;28;20542;-47
2023/11/17 07:33:41;;;;;;;0.30;0.20;;;;;;;8.80;100.00;100478.50;5026196;28;20480;-46
2023/11/17 07:36:09;;;;;;;0.30;0.20;;;;;;;8.90;100.00;100475.63;5031883;28;20498;-47
2023/11/17 07:38:39;;;;;;;0.30;0.20;;;;;;;8.77;100.00;100481.19;5027920;28;20923;-52
2023/11/17 07:41:05;;;;;;;0.30;0.20;;;;;;;8.91;100.00;100476.53;5032013;28;21043;-54
2023/11/17 07:43:32;;;;;;;0.30;0.20;;;;;;;9.01;100.00;100487.81;5026762;28;20527;-51
2023/11/17 07:45:59;;;;;;;0.30;0.20;;;;;;;8.84;100.00;100488.13;5019522;28;20459;-51
2023/11/17 07:48:25;;;;;;;0.30;0.20;;;;;;;9.08;100.00;100489.47;5027699;28;20535;-52
2023/11/17 07:50:52;;;;;;;0.30;0.20;;;;;;;9.01;100.00;100495.78;5031599;28;20476;-53
2023/11/17 07:53:19;;;;;;;0.30;0.20;;;;;;;9.03;100.00;100497.47;5031439;28;20459;-52
2023/11/17 07:55:46;;;;;;;0.30;0.20;;;;;;;9.06;100.00;100499.22;5025695;28;20830;-53
2023/11/17 07:58:12;;;;;;;0.30;0.20;;;;;;;9.04;100.00;100508.97;5035314;28;20530;-50
2023/11/17 08:00:39;;;;;;;0.30;0.20;;;;;;;9.06;100.00;100508.06;5029592;28;20668;-51
2023/11/17 08:03:05;;;;;;;0.30;0.20;;;;;;;9.17;100.00;100508.69;5029816;28;21046;-51
2023/11/17 08:05:32;;;;;;;0.30;0.20;;;;;;;9.14;100.00;100506.13;5035524;28;20481;-52
2023/11/17 08:08:00;;;;;;;0.30;0.20;;;;;;;9.26;100.00;100514.75;5035378;28;20423;-47
2023/11/17 08:10:29;;;;;;;0.30;0.20;;;;;;;9.26;100.00;100520.03;5035462;28;20478;-46
2023/11/17 08:12:55;;;;;;;0.30;0.20;;;;;;;9.20;100.00;100516.63;5035065;28;20934;-47
2023/11/17 08:15:22;;;;;;;0.30;0.20;;;;;;;9.17;100.00;100514.00;5031136;28;20455;-46
2023/11/17 08:17:48;;;;;;;0.30;0.20;;;;;;;9.08;100.00;100514.19;5035383;28;20546;-45
2023/11/17 08:20:15;;;;;;;0.30;0.20;;;;;;;9.04;100.00;100509.84;5031606;28;20834;-46
2023/11/17 08:22:42;;;;;;;0.30;0.20;;;;;;;9.28;100.00;100511.16;5030498;28;21011;-46
2023/11/17 08:25:09;;;;;;;0.40;0.37;;;;;;;9.27;100.00;100512.06;5035113;28;20534;-46
2023/11/17 08:27:36;;;;;;;0.30;0.20;;;;;;;9.38;100.00;100519.81;5033644;28;20536;-46
2023/11/17 08:30:07;;;;;;;0.30;0.20;;;;;;;9.38;100.00;100520.69;5025323;28;20906;-46
2023/11/17 08:32:37;;;;;;;0.30;0.20;;;;;;;9.47;100.00;100524.94;5032506;28;20859;-46
2023/11/17 08:35:04;;;;;;;0.30;0.20;;;;;;;9.59;100.00;100518.47;5034348;28;20451;-49
2023/11/17 08:37:32;;;;;;;0.30;0.20;;;;;;;9.48;100.00;100524.03;5031284;28;21011;-49
2023/11/17 08:40:00;;;;;;;0.30;0.20;;;;;;;9.50;100.00;100527.53;5034638;28;21032;-48
2023/11/17 08:42:26;;;;;;;0.30;0.20;;;;;;;9.57;100.00;100520.28;5029800;28;20455;-49
2023/11/17 08:44:53;;;;;;;0.30;0.20;;;;;;;9.59;100.00;100521.13;5019009;28;20460;-49
2023/11/17 08:47:19;;;;;;;0.30;0.20;;;;;;;9.56;100.00;100523.84;5033385;28;20452;-48
2023/11/17 08:49:46;;;;;;;0.30;0.20;;;;;;;9.62;100.00;100524.63;5034661;28;20503;-48
2023/11/17 08:52:13;;;;;;;0.30;0.20;;;;;;;9.49;100.00;100523.13;5033089;28;20455;-49
2023/11/17 08:54:39;;;;;;;0.30;0.20;;;;;;;9.53;100.00;100527.44;5034518;28;20456;-49
2023/11/17 08:57:06;;;;;;;0.30;0.20;;;;;;;9.47;100.00;100531.13;5024121;28;20483;-49
2023/11/17 08:59:33;;;;;;;0.30;0.20;;;;;;;9.69;100.00;100535.97;5034434;28;20479;-49
2023/11/17 09:01:59;;;;;;;0.30;0.20;;;;;;;9.82;100.00;100536.59;5016320;28;20457;-48
2023/11/17 09:04:26;;;;;;;0.30;0.20;;;;;;;9.88;100.00;100525.84;5015572;28;20460;-48
2023/11/17 09:06:53;;;;;;;0.30;0.20;;;;;;;9.90;100.00;100540.84;5030907;28;20510;-49
2023/11/17 09:09:20;;;;;;;0.30;0.20;;;;;;;9.66;100.00;100526.28;5033993;28;20468;-49
2023/11/17 09:11:58;;;;;;;0.30;0.20;;;;;;;9.86;100.00;100536.47;5009131;28;20443;-48
2023/11/17 09:14:26;;;;;;;0.30;0.20;;;;;;;9.88;100.00;100544.44;5033934;28;20451;-48
2023/11/17 09:17:00;;;;;;;2.00;1.90;;;;;;;10.00;100.00;100541.47;5034184;28;20450;-49
2023/11/17 09:19:27;;;;;;;0.30;0.20;;;;;;;9.99;100.00;100535.31;5033804;28;20980;-49
2023/11/17 09:21:53;;;;;;;0.30;0.20;;;;;;;9.99;100.00;100532.66;5033932;28;20848;-48
2023/11/17 09:24:20;;;;;;;0.30;0.20;;;;;;;10.13;100.00;100532.34;5033936;28;20475;-47
2023/11/17 09:26:47;;;;;;;0.30;0.20;;;;;;;10.22;100.00;100540.13;5034103;28;20586;-48
2023/11/17 09:29:13;;;;;;;0.30;0.30;;;;;;;10.17;100.00;100535.81;5030537;28;20461;-49
2023/11/17 09:31:40;;;;;;;0.30;0.20;;;;;;;10.46;100.00;100541.34;5023951;28;20812;-48
2023/11/17 09:34:08;;;;;;;0.40;0.30;;;;;;;10.33;100.00;100546.06;5033701;28;20476;-49
2023/11/17 09:36:36;;;;;;;0.67;0.67;;;;;;;10.44;100.00;100536.97;5033093;28;20458;-49
2023/11/17 09:39:03;;;;;;;0.30;0.20;;;;;;;10.39;99.90;100539.72;5031330;28;20495;-48
2023/11/17 09:41:30;;;;;;;0.30;0.20;;;;;;;10.30;99.86;100543.50;5034110;28;20553;-49
2023/11/17 09:43:57;;;;;;;0.30;0.20;;;;;;;10.64;98.90;100535.56;5025688;28;20795;-48
2023/11/17 09:46:27;;;;;;;0.30;0.20;;;;;;;10.52;99.92;100540.31;5025077;28;20855;-49
2023/11/17 09:48:59;;;;;;;0.30;0.20;;;;;;;10.76;100.00;100541.50;5033256;28;20553;-47
2023/11/17 09:51:28;;;;;;;0.30;0.30;;;;;;;10.85;99.14;100541.28;5033483;28;20932;-49
2023/11/17 09:53:57;;;;;;;0.30;0.20;;;;;;;10.94;98.46;100538.34;5033471;28;20479;-48
2023/11/17 09:56:26;;;;;;;0.30;0.20;;;;;;;11.07;97.72;100546.88;5033395;28;20538;-48
2023/11/17 09:58:53;;;;;;;0.30;0.20;;;;;;;11.07;96.79;100547.75;5033358;28;20518;-48
2023/11/17 10:01:19;;;;;;;0.30;0.20;;;;;;;11.09;95.81;100553.03;5021917;28;20460;-49
2023/11/17 10:03:48;;;;;;;0.30;0.20;;;;;;;10.79;96.14;100546.72;5033469;28;20471;-48
2023/11/17 10:06:15;;;;;;;0.30;0.20;;;;;;;10.75;96.08;100545.94;5033054;28;20452;-48
2023/11/17 10:08:43;;;;;;;0.30;0.20;;;;;;;10.82;96.92;100552.84;5029830;28;20422;-48
2023/11/17 10:11:14;;;;;;;0.30;0.20;;;;;;;10.79;96.35;100552.91;5018241;28;20476;-49
2023/11/17 10:13:41;;;;;;;0.30;0.20;;;;;;;10.95;96.20;100545.41;5012514;28;21019;-49
2023/11/17 10:16:07;;;;;;;0.30;0.20;;;;;;;10.96;96.40;100556.06;5016270;28;21051;-49
2023/11/17 10:18:35;;;;;;;0.30;0.20;;;;;;;10.82;95.47;100555.50;5019624;28;20496;-49
2023/11/17 10:21:02;;;;;;;0.30;0.20;;;;;;;10.83;96.46;100551.94;5015415;28;20467;-49
2023/11/17 10:23:31;;;;;;;0.30;0.20;;;;;;;10.86;96.40;100554.53;5019751;28;20887;-49
2023/11/17 10:25:57;;;;;;;0.30;0.20;;;;;;;10.93;95.63;100557.88;5027370;28;20458;-49
2023/11/17 10:28:26;;;;;;;0.30;0.20;;;;;;;10.90;96.20;100557.97;5020227;28;20453;-50
2023/11/17 10:30:56;;;;;;;0.30;0.20;;;;;;;11.02;96.62;100556.78;5016913;28;20471;-49
2023/11/17 10:33:30;;;;;;;0.30;0.20;;;;;;;11.23;95.96;100564.19;5024420;28;20448;-48
2023/11/17 10:36:04;;;;;;;0.30;0.20;;;;;;;11.05;96.60;100557.56;5027788;28;20455;-49
2023/11/17 10:38:34;;;;;;;0.30;0.20;;;;;;;10.88;96.61;100566.00;5019364;28;20486;-49
2023/11/17 10:41:16;;;;;;;0.30;0.20;;;;;;;11.03;96.25;100562.06;5016585;28;20522;-50
2023/11/17 10:43:48;;;;;;;0.30;0.20;;;;;;;11.11;97.12;100562.75;5026413;28;20426;-49
2023/11/17 10:46:19;;;;;;;0.30;0.20;;;;;;;11.00;97.54;100562.16;5022732;28;20451;-49
2023/11/17 10:48:52;;;;;;;0.50;0.50;;;;;;;10.72;98.38;100564.63;5032267;28;20501;-49
2023/11/17 10:51:21;;;;;;;0.30;0.20;;;;;;;10.70;98.55;100562.94;5023639;28;20987;-48
2023/11/17 10:54:05;;;;;;;0.40;0.20;;;;;;;10.71;98.77;100562.03;5028260;28;20451;-49
2023/11/17 10:56:33;;;;;;;0.30;0.20;;;;;;;10.70;99.48;100566.47;5026682;28;20598;-49
2023/11/17 10:59:00;;;;;;;0.30;0.20;;;;;;;10.61;99.87;100554.25;5019507;28;20623;-48
2023/11/17 11:01:31;;;;;;;0.30;0.20;;;;;;;10.81;99.60;100555.53;5014643;28;20511;-48
2023/11/17 11:03:58;;;;;;;0.30;0.20;;;;;;;10.79;99.91;100552.91;5029992;28;20483;-49
2023/11/17 11:06:26;;;;;;;0.40;0.40;;;;;;;10.63;99.25;100555.09;5032188;28;20542;-48
2023/11/17 11:08:54;;;;;;;0.30;0.20;;;;;;;10.69;100.00;100554.09;5031947;28;20454;-48
2023/11/17 11:11:23;;;;;;;0.30;0.20;;;;;;;10.93;99.25;100549.91;5029885;28;20430;-49
2023/11/17 11:13:55;;;;;;;0.30;0.20;;;;;;;10.90;98.84;100552.66;5021382;28;21075;-49
2023/11/17 11:16:24;;;;;;;0.30;0.20;;;;;;;11.04;98.69;100565.59;5021479;28;20518;-49
2023/11/17 11:18:53;;;;;;;0.30;0.20;;;;;;;10.89;99.19;100556.22;5031930;28;20493;-49
2023/11/17 11:21:21;;;;;;;0.30;0.20;;;;;;;10.97;98.61;100549.81;5032056;28;20543;-47
2023/11/17 11:23:50;;;;;;;0.30;0.20;;;;;;;11.12;99.07;100551.19;5031880;28;20462;-47
2023/11/17 11:26:17;;;;;;;0.30;0.20;;;;;;;11.08;99.09;100551.28;5031865;28;20539;-47
2023/11/17 11:28:48;;;;;;;0.30;0.20;;;;;;;10.93;98.93;100563.22;5023614;28;20423;-47